Time;durP1;ratioP1;P1;durP2;ratioP2;P2;SDS_P1;SDS_P2;PMS_P1;PMS_P2;Temp;Humidity;BMP_temperature;BMP_pressure;BME280_temperature;BME280_humidity;BME280_pressure;Samples;Min_cycle;Max_cycle;Signal;HPM_P1;HPM_P2
2023/10/30 00:02:18;;;;;;;12.13;3.22;;;;;;;9.52;100.00;99780.56;5000131;28;20104;-50
2023/10/30 00:04:43;;;;;;;13.25;2.55;;;;;;;9.53;100.00;99783.09;5007409;28;20567;-51
2023/10/30 00:07:08;;;;;;;14.02;3.08;;;;;;;9.54;100.00;99781.25;5000020;28;20022;-50
2023/10/30 00:09:34;;;;;;;14.23;2.88;;;;;;;9.53;100.00;99788.38;4997119;28;20050;-50
2023/10/30 00:12:00;;;;;;;12.50;2.53;;;;;;;9.52;100.00;99792.00;5001937;28;20034;-50
2023/10/30 00:14:26;;;;;;;12.95;2.85;;;;;;;9.53;100.00;99785.72;5002212;28;20026;-50
2023/10/30 00:16:51;;;;;;;12.25;2.80;;;;;;;9.54;100.00;99798.03;4998354;28;20026;-50
2023/10/30 00:19:16;;;;;;;16.20;2.63;;;;;;;9.53;100.00;99798.16;5006245;28;20485;-50
2023/10/30 00:21:42;;;;;;;11.70;3.28;;;;;;;9.51;100.00;99797.44;5000233;28;20030;-50
2023/10/30 00:24:07;;;;;;;11.70;3.03;;;;;;;9.52;100.00;99807.06;4998199;28;20034;-50
2023/10/30 00:26:33;;;;;;;13.98;2.92;;;;;;;9.52;100.00;99809.72;4998207;28;20034;-51
2023/10/30 00:28:58;;;;;;;11.20;2.80;;;;;;;9.49;100.00;99818.78;5012183;28;20050;-50
2023/10/30 00:31:24;;;;;;;13.95;2.60;;;;;;;9.49;100.00;99824.06;5001519;28;20091;-50
2023/10/30 00:33:50;;;;;;;11.75;2.58;;;;;;;9.50;100.00;99827.59;4999090;28;20052;-51
2023/10/30 00:36:15;;;;;;;17.02;2.67;;;;;;;9.50;100.00;99820.47;4997825;28;20575;-51
2023/10/30 00:38:40;;;;;;;9.70;2.95;;;;;;;9.48;100.00;99818.94;5014215;28;20038;-51
2023/10/30 00:41:10;;;;;;;11.23;3.30;;;;;;;9.48;100.00;99830.38;4999378;28;20064;-51
2023/10/30 00:43:39;;;;;;;14.18;3.30;;;;;;;9.47;100.00;99826.03;4995746;28;20034;-51
2023/10/30 00:46:06;;;;;;;12.43;3.17;;;;;;;9.47;100.00;99831.31;5001839;28;20046;-51
2023/10/30 00:48:32;;;;;;;13.85;3.28;;;;;;;9.48;100.00;99837.50;4998388;28;20030;-50
2023/10/30 00:50:57;;;;;;;13.45;3.03;;;;;;;9.48;100.00;99837.50;5001864;28;20024;-51
2023/10/30 00:53:22;;;;;;;13.50;3.00;;;;;;;9.50;100.00;99849.63;4996505;28;20113;-50
2023/10/30 00:55:51;;;;;;;18.30;3.25;;;;;;;9.49;100.00;99853.22;5004606;28;20037;-53
2023/10/30 00:58:17;;;;;;;12.53;3.00;;;;;;;9.49;100.00;99850.56;4998429;28;20033;-51
2023/10/30 01:00:42;;;;;;;13.55;3.17;;;;;;;9.48;100.00;99856.03;4994272;28;20034;-52
2023/10/30 01:03:07;;;;;;;14.25;3.22;;;;;;;9.50;100.00;99859.38;4998655;28;20031;-51
2023/10/30 01:05:33;;;;;;;11.57;2.80;;;;;;;9.49;100.00;99861.19;5000787;28;20029;-51
2023/10/30 01:07:58;;;;;;;12.57;2.80;;;;;;;9.50;100.00;99864.69;4997517;28;20385;-50
2023/10/30 01:10:23;;;;;;;13.82;2.92;;;;;;;9.50;100.00;99870.00;4999548;28;20049;-54
2023/10/30 01:12:48;;;;;;;11.20;2.67;;;;;;;9.53;100.00;99873.22;4999967;28;20030;-54
2023/10/30 01:15:16;;;;;;;12.68;2.50;;;;;;;9.51;100.00;99875.16;4999631;28;20041;-50
2023/10/30 01:17:41;;;;;;;11.98;3.15;;;;;;;9.54;100.00;99879.34;4998810;28;20473;-52
2023/10/30 01:20:07;;;;;;;12.25;3.15;;;;;;;9.52;100.00;99876.81;4999204;28;20148;-49
2023/10/30 01:22:32;;;;;;;11.05;2.58;;;;;;;9.54;100.00;99884.63;4998053;28;20026;-50
2023/10/30 01:24:58;;;;;;;16.70;3.13;;;;;;;9.55;100.00;99883.69;4999974;28;20151;-50
2023/10/30 01:27:23;;;;;;;14.95;2.70;;;;;;;9.55;100.00;99881.03;4994815;28;20023;-50
2023/10/30 01:29:48;;;;;;;12.75;2.40;;;;;;;9.57;100.00;99873.78;4998755;28;20018;-50
2023/10/30 01:32:13;;;;;;;10.75;2.60;;;;;;;9.58;100.00;99870.16;4995802;28;20480;-50
2023/10/30 01:34:39;;;;;;;8.25;2.65;;;;;;;9.57;100.00;99871.13;4998940;28;20018;-51
2023/10/30 01:37:04;;;;;;;13.48;2.83;;;;;;;9.58;100.00;99863.03;5001753;28;20022;-50
2023/10/30 01:39:29;;;;;;;10.65;2.92;;;;;;;9.60;100.00;99862.91;5000199;28;20026;-50
2023/10/30 01:41:55;;;;;;;14.73;2.80;;;;;;;9.61;100.00;99870.72;5001884;28;20042;-50
2023/10/30 01:44:20;;;;;;;11.45;2.58;;;;;;;9.62;100.00;99879.50;4997450;28;20553;-51
2023/10/30 01:46:45;;;;;;;12.10;2.95;;;;;;;9.62;100.00;99871.56;4997303;28;20057;-51
2023/10/30 01:49:11;;;;;;;13.23;3.05;;;;;;;9.63;100.00;99874.06;4999340;28;20033;-50
2023/10/30 01:51:36;;;;;;;15.32;2.72;;;;;;;9.63;100.00;99878.53;4993208;28;20568;-50
2023/10/30 01:54:02;;;;;;;14.48;2.80;;;;;;;9.63;100.00;99876.72;5011534;28;20033;-50
2023/10/30 01:56:27;;;;;;;18.67;2.75;;;;;;;9.63;100.00;99876.72;4993989;28;20030;-50
2023/10/30 01:58:53;;;;;;;11.13;2.58;;;;;;;9.65;100.00;99878.41;4994927;28;20026;-50
2023/10/30 02:01:18;;;;;;;14.18;3.72;;;;;;;9.65;100.00;99895.16;4998390;28;20038;-50
2023/10/30 02:03:43;;;;;;;14.18;2.80;;;;;;;9.65;100.00;99884.53;4998007;28;20025;-53
2023/10/30 02:06:09;;;;;;;16.55;3.30;;;;;;;9.66;100.00;99890.66;4995992;28;20049;-50
2023/10/30 02:08:34;;;;;;;9.05;2.88;;;;;;;9.67;100.00;99885.25;4997201;28;20483;-50
2023/10/30 02:10:59;;;;;;;12.45;2.80;;;;;;;9.69;100.00;99891.28;5000925;28;20552;-51
2023/10/30 02:13:25;;;;;;;10.82;3.05;;;;;;;9.67;100.00;99890.53;4997013;28;20484;-52
2023/10/30 02:15:50;;;;;;;10.13;2.72;;;;;;;9.70;100.00;99881.50;4999121;28;20386;-50
2023/10/30 02:18:15;;;;;;;11.57;2.70;;;;;;;9.69;100.00;99888.63;4996702;28;20053;-51
2023/10/30 02:20:40;;;;;;;12.50;3.00;;;;;;;9.71;100.00;99885.81;4997232;28;20133;-50
2023/10/30 02:23:06;;;;;;;12.35;2.72;;;;;;;9.73;100.00;99894.47;5001600;28;20030;-50
2023/10/30 02:25:34;;;;;;;9.93;2.75;;;;;;;9.74;100.00;99893.50;4995905;28;20111;-50
2023/10/30 02:27:59;;;;;;;8.82;2.67;;;;;;;9.74;100.00;99886.41;4999313;28;20396;-52
2023/10/30 02:30:26;;;;;;;9.82;2.50;;;;;;;9.75;100.00;99882.75;5002158;28;20035;-50
2023/10/30 02:32:52;;;;;;;11.35;2.60;;;;;;;9.74;100.00;99883.75;4997003;28;20022;-51
2023/10/30 02:35:17;;;;;;;10.65;3.20;;;;;;;9.73;100.00;99883.88;4998555;28;20033;-51
2023/10/30 02:37:43;;;;;;;13.13;2.55;;;;;;;9.72;100.00;99883.00;4995525;28;20113;-52
2023/10/30 02:40:09;;;;;;;9.80;2.42;;;;;;;9.73;100.00;99873.28;4998536;28;20042;-50
2023/10/30 02:42:35;;;;;;;10.38;2.47;;;;;;;9.73;100.00;99878.56;4993985;28;20092;-50
2023/10/30 02:45:01;;;;;;;14.23;3.03;;;;;;;9.72;100.00;99872.41;4996873;28;20112;-51
2023/10/30 02:47:28;;;;;;;12.98;2.47;;;;;;;9.72;100.00;99868.94;4998315;28;20049;-50
2023/10/30 02:49:53;;;;;;;9.30;2.35;;;;;;;9.70;100.00;99869.06;4999042;28;20117;-51
2023/10/30 02:52:19;;;;;;;13.65;2.63;;;;;;;9.70;100.00;99869.06;4998863;28;20532;-51
2023/10/30 02:54:44;;;;;;;12.27;2.70;;;;;;;9.71;100.00;99876.06;4996727;28;20035;-50
2023/10/30 02:57:10;;;;;;;13.80;2.88;;;;;;;9.70;100.00;99869.06;5001172;28;20029;-53
2023/10/30 02:59:36;;;;;;;12.10;2.53;;;;;;;9.72;100.00;99863.63;4996480;28;20022;-52
2023/10/30 03:02:02;;;;;;;14.32;2.58;;;;;;;9.72;100.00;99866.28;4996470;28;20241;-50
2023/10/30 03:04:28;;;;;;;7.82;2.30;;;;;;;9.71;100.00;99861.94;4995126;28;20033;-51
2023/10/30 03:06:53;;;;;;;12.77;2.67;;;;;;;9.70;100.00;99862.94;4996710;28;20025;-50
2023/10/30 03:09:19;;;;;;;9.68;2.28;;;;;;;9.71;100.00;99869.88;4998325;28;20026;-50
2023/10/30 03:11:44;;;;;;;9.60;2.42;;;;;;;9.74;100.00;99872.28;4998576;28;20037;-50
2023/10/30 03:14:10;;;;;;;10.52;2.53;;;;;;;9.72;100.00;99876.88;4996965;28;20038;-51
2023/10/30 03:16:35;;;;;;;12.27;2.63;;;;;;;9.73;100.00;99876.75;4996358;28;20026;-50
2023/10/30 03:19:01;;;;;;;10.77;2.70;;;;;;;9.73;100.00;99887.34;4997807;28;20034;-50
2023/10/30 03:21:26;;;;;;;15.48;2.70;;;;;;;9.73;100.00;99887.34;4997181;28;20155;-51
2023/10/30 03:23:51;;;;;;;10.25;2.10;;;;;;;9.75;100.00;99898.66;4995689;28;20058;-51
2023/10/30 03:26:17;;;;;;;12.43;2.75;;;;;;;9.74;100.00;99891.69;4997739;28;20033;-50
2023/10/30 03:28:42;;;;;;;9.77;2.78;;;;;;;9.74;100.00;99888.19;4995373;28;20475;-50
2023/10/30 03:31:09;;;;;;;8.52;2.30;;;;;;;9.73;100.00;99889.19;4996966;28;20034;-50
2023/10/30 03:33:35;;;;;;;9.55;2.25;;;;;;;9.71;100.00;99891.09;5001619;28;20026;-50
2023/10/30 03:36:01;;;;;;;9.98;2.67;;;;;;;9.72;100.00;99896.28;5000409;28;20113;-49
2023/10/30 03:38:27;;;;;;;10.68;2.50;;;;;;;9.73;100.00;99886.53;4996474;28;20026;-49
2023/10/30 03:40:52;;;;;;;13.48;2.90;;;;;;;9.72;100.00;99883.00;4997194;28;20022;-49
2023/10/30 03:43:17;;;;;;;12.90;2.78;;;;;;;9.71;100.00;99881.34;5000896;28;20484;-49
2023/10/30 03:45:44;;;;;;;13.00;2.67;;;;;;;9.69;100.00;99875.34;4995478;28;20412;-50
2023/10/30 03:48:09;;;;;;;13.48;3.05;;;;;;;9.69;100.00;99880.66;4996592;28;20030;-50
2023/10/30 03:50:34;;;;;;;10.50;2.97;;;;;;;9.68;100.00;99881.63;4999079;28;20518;-50
2023/10/30 03:53:00;;;;;;;11.65;2.47;;;;;;;9.69;100.00;99885.09;5004228;28;20033;-50
2023/10/30 03:55:26;;;;;;;13.57;2.55;;;;;;;9.68;100.00;99888.75;4996333;28;20147;-50
2023/10/30 03:57:52;;;;;;;11.23;2.72;;;;;;;9.68;100.00;99886.94;4996404;28;20110;-51
2023/10/30 04:00:17;;;;;;;8.60;2.00;;;;;;;9.66;100.00;99888.88;4999275;28;20366;-50
2023/10/30 04:02:42;;;;;;;8.93;2.30;;;;;;;9.64;100.00;99885.50;4999653;28;20026;-50
2023/10/30 04:05:08;;;;;;;10.57;2.42;;;;;;;9.62;100.00;99882.16;4998586;28;20026;-50
2023/10/30 04:07:33;;;;;;;11.10;2.40;;;;;;;9.63;100.00;99881.19;4999684;28;20030;-50
2023/10/30 04:09:59;;;;;;;10.57;2.75;;;;;;;9.63;100.00;99881.19;5000703;28;20056;-50
2023/10/30 04:12:24;;;;;;;13.20;2.60;;;;;;;9.62;100.00;99876.84;4998874;28;20157;-51
2023/10/30 04:14:51;;;;;;;11.18;2.85;;;;;;;9.61;100.00;99883.97;4999321;28;20029;-50
2023/10/30 04:17:16;;;;;;;9.77;2.78;;;;;;;9.61;100.00;99881.31;5001856;28;20109;-50
2023/10/30 04:19:41;;;;;;;12.60;2.67;;;;;;;9.64;100.00;99882.84;4999209;28;20122;-48
2023/10/30 04:22:07;;;;;;;10.05;2.50;;;;;;;9.62;100.00;99882.16;4994307;28;20034;-48
2023/10/30 04:24:32;;;;;;;12.20;2.60;;;;;;;9.61;100.00;99883.16;5000593;28;20030;-47
2023/10/30 04:26:57;;;;;;;12.57;2.60;;;;;;;9.60;100.00;99884.09;4998275;28;20022;-47
2023/10/30 04:29:22;;;;;;;14.07;2.80;;;;;;;9.58;100.00;99891.38;4999447;28;20033;-49
2023/10/30 04:31:48;;;;;;;11.82;2.45;;;;;;;9.56;100.00;99890.63;4997177;28;20022;-49
2023/10/30 04:34:13;;;;;;;11.07;2.67;;;;;;;9.50;100.00;99892.03;4999173;28;20042;-48
2023/10/30 04:36:38;;;;;;;12.82;2.72;;;;;;;9.50;100.00;99885.91;4996378;28;20034;-50
2023/10/30 04:39:08;;;;;;;9.50;2.40;;;;;;;9.46;100.00;99882.69;4999977;28;20473;-50
2023/10/30 04:41:33;;;;;;;12.30;2.47;;;;;;;9.46;100.00;99895.94;5001512;28;20090;-48
2023/10/30 04:43:59;;;;;;;11.98;2.83;;;;;;;9.45;100.00;99888.94;4997345;28;20117;-48
2023/10/30 04:46:24;;;;;;;11.52;2.70;;;;;;;9.42;100.00;99892.69;4997883;28;20046;-47
2023/10/30 04:48:49;;;;;;;9.18;2.25;;;;;;;9.40;100.00;99891.16;5000174;28;20035;-49
2023/10/30 04:51:14;;;;;;;8.88;2.50;;;;;;;9.40;100.00;99891.16;5000181;28;20041;-48
2023/10/30 04:53:40;;;;;;;18.80;2.65;;;;;;;9.39;100.00;99900.06;4998780;28;20395;-48
2023/10/30 04:56:07;;;;;;;11.27;2.60;;;;;;;9.38;100.00;99895.75;5012249;28;20024;-48
2023/10/30 04:58:33;;;;;;;19.45;2.80;;;;;;;9.35;100.00;99880.94;5001234;28;20367;-47
2023/10/30 05:00:58;;;;;;;10.85;2.50;;;;;;;9.33;100.00;99879.41;5000682;28;20022;-48
2023/10/30 05:03:24;;;;;;;13.18;3.00;;;;;;;9.31;100.00;99884.00;4999492;28;20026;-48
2023/10/30 05:05:49;;;;;;;11.13;2.60;;;;;;;9.29;100.00;99884.13;4997656;28;20034;-47
2023/10/30 05:08:15;;;;;;;17.17;2.83;;;;;;;9.29;100.00;99881.47;5000494;28;20485;-48
2023/10/30 05:10:40;;;;;;;10.95;2.42;;;;;;;9.27;100.00;99880.78;4998235;28;20036;-47
2023/10/30 05:13:06;;;;;;;11.43;2.53;;;;;;;9.25;100.00;99885.38;5016011;28;20016;-47
2023/10/30 05:15:31;;;;;;;10.93;2.60;;;;;;;9.24;100.00;99887.19;4999081;28;20189;-48
2023/10/30 05:17:57;;;;;;;10.27;2.47;;;;;;;9.22;100.00;99893.59;4998479;28;20495;-48
2023/10/30 05:20:22;;;;;;;8.90;2.28;;;;;;;9.19;100.00;99900.00;4998369;28;20035;-48
2023/10/30 05:22:47;;;;;;;14.52;2.60;;;;;;;9.19;100.00;99894.69;5002185;28;20608;-47
2023/10/30 05:25:12;;;;;;;12.05;2.45;;;;;;;9.19;100.00;99889.41;4999288;28;20038;-47
2023/10/30 05:27:38;;;;;;;13.45;2.67;;;;;;;9.15;100.00;99884.50;4995355;28;20022;-48
2023/10/30 05:30:03;;;;;;;11.93;2.60;;;;;;;9.15;100.00;99884.50;4996766;28;20102;-47
2023/10/30 05:32:29;;;;;;;10.25;2.40;;;;;;;9.11;100.00;99868.03;4994310;28;20361;-48
2023/10/30 05:34:54;;;;;;;12.98;3.22;;;;;;;9.10;100.00;99873.47;4998546;28;20027;-47
2023/10/30 05:37:19;;;;;;;13.38;3.15;;;;;;;9.11;100.00;99867.16;5003146;28;20289;-47
2023/10/30 05:39:45;;;;;;;7.95;2.30;;;;;;;9.08;100.00;99865.63;4997812;28;20396;-48
2023/10/30 05:42:10;;;;;;;11.02;2.80;;;;;;;9.05;100.00;99884.44;4999243;28;20033;-48
2023/10/30 05:44:36;;;;;;;16.65;3.28;;;;;;;9.05;100.00;99879.13;4994328;28;20417;-48
2023/10/30 05:47:02;;;;;;;12.93;2.33;;;;;;;9.03;100.00;99884.56;4997099;28;20389;-49
2023/10/30 05:49:28;;;;;;;12.25;2.95;;;;;;;9.00;100.00;99892.78;4996929;28;20112;-48
2023/10/30 05:51:54;;;;;;;13.48;2.22;;;;;;;9.00;100.00;99884.81;5000003;28;20487;-48
2023/10/30 05:54:20;;;;;;;12.57;2.70;;;;;;;8.98;100.00;99875.34;4996633;28;20061;-48
2023/10/30 05:56:45;;;;;;;8.70;2.50;;;;;;;8.95;100.00;99873.78;4996919;28;20030;-49
2023/10/30 05:59:10;;;;;;;10.63;2.65;;;;;;;8.93;100.00;99867.78;4994114;28;20057;-48
2023/10/30 06:01:35;;;;;;;13.75;2.58;;;;;;;8.93;100.00;99866.97;5003480;28;20495;-48
2023/10/30 06:04:02;;;;;;;10.27;2.28;;;;;;;8.95;100.00;99865.84;5000207;28;20039;-48
2023/10/30 06:06:27;;;;;;;10.23;2.60;;;;;;;8.93;100.00;99859.03;4997432;28;20029;-50
2023/10/30 06:08:52;;;;;;;16.80;2.85;;;;;;;8.93;100.00;99870.44;4998353;28;20026;-49
2023/10/30 06:11:18;;;;;;;12.55;3.03;;;;;;;8.92;100.00;99867.91;4995198;28;20030;-49
2023/10/30 06:13:43;;;;;;;12.27;2.83;;;;;;;8.91;100.00;99872.38;4993841;28;20033;-50
2023/10/30 06:16:15;;;;;;;10.60;2.70;;;;;;;8.92;100.00;99871.41;4996860;28;20025;-47
2023/10/30 06:18:41;;;;;;;11.75;2.10;;;;;;;8.93;100.00;99870.44;5005741;28;20038;-47
2023/10/30 06:21:07;;;;;;;10.25;2.60;;;;;;;8.91;100.00;99884.75;5005885;28;20037;-47
2023/10/30 06:23:33;;;;;;;10.38;2.30;;;;;;;8.91;100.00;99887.41;4998291;28;20026;-46
2023/10/30 06:25:59;;;;;;;10.30;2.55;;;;;;;8.87;100.00;99889.50;4997378;28;20041;-46
2023/10/30 06:28:24;;;;;;;10.68;2.40;;;;;;;8.86;100.00;99895.78;4995340;28;20033;-46
2023/10/30 06:30:50;;;;;;;12.65;2.80;;;;;;;8.83;100.00;99885.44;4999075;28;20492;-46
2023/10/30 06:33:15;;;;;;;6.90;2.20;;;;;;;8.79;100.00;99899.88;4994385;28;20033;-46
2023/10/30 06:35:40;;;;;;;11.88;2.45;;;;;;;8.76;100.00;99902.78;4999713;28;20037;-46
2023/10/30 06:38:06;;;;;;;10.68;2.72;;;;;;;8.74;100.00;99910.03;4996630;28;20038;-46
2023/10/30 06:40:31;;;;;;;10.88;2.70;;;;;;;8.72;100.00;99920.75;4999123;28;20033;-46
2023/10/30 06:42:56;;;;;;;12.05;2.90;;;;;;;8.70;100.00;99930.63;4994014;28;20099;-46
2023/10/30 06:45:21;;;;;;;14.68;4.07;;;;;;;8.67;100.00;99923.75;5003366;28;20033;-46
2023/10/30 06:47:47;;;;;;;8.60;2.55;;;;;;;8.63;100.00;99925.00;5000292;28;20102;-46
2023/10/30 06:50:12;;;;;;;13.23;3.50;;;;;;;8.62;100.00;99925.97;4998531;28;20025;-47
2023/10/30 06:52:37;;;;;;;16.27;3.00;;;;;;;8.62;100.00;99930.44;4999777;28;20027;-47
2023/10/30 06:55:03;;;;;;;15.27;3.03;;;;;;;8.61;100.00;99920.78;4994065;28;20041;-46
2023/10/30 06:57:28;;;;;;;11.88;2.85;;;;;;;8.63;100.00;99921.53;4996490;28;20030;-46
2023/10/30 06:59:55;;;;;;;14.52;2.83;;;;;;;8.65;100.00;99935.47;4995143;28;20046;-47
2023/10/30 07:02:20;;;;;;;11.23;2.80;;;;;;;8.65;100.00;99936.31;4994347;28;20080;-46
2023/10/30 07:04:46;;;;;;;12.48;2.90;;;;;;;8.67;100.00;99929.06;4992618;28;20475;-46
2023/10/30 07:07:11;;;;;;;10.77;2.28;;;;;;;8.69;100.00;99929.78;5014766;28;20033;-47
2023/10/30 07:09:36;;;;;;;14.50;3.05;;;;;;;8.69;100.00;99924.50;4999733;28;20029;-46
2023/10/30 07:12:02;;;;;;;9.82;2.80;;;;;;;8.72;100.00;99930.50;5000160;28;20044;-47
2023/10/30 07:14:28;;;;;;;16.52;3.03;;;;;;;8.74;100.00;99931.22;4996821;28;20041;-47
2023/10/30 07:16:54;;;;;;;17.55;4.03;;;;;;;8.74;100.00;99933.84;4998574;28;20027;-47
2023/10/30 07:19:22;;;;;;;15.45;2.90;;;;;;;8.76;100.00;99930.13;4995018;28;20049;-48
2023/10/30 07:21:47;;;;;;;15.13;3.22;;;;;;;8.78;100.00;99930.84;4996672;28;20410;-47
2023/10/30 07:24:13;;;;;;;11.68;2.72;;;;;;;8.81;100.00;99932.38;4992723;28;20029;-47
2023/10/30 07:26:40;;;;;;;12.57;2.50;;;;;;;8.84;100.00;99929.47;4994662;28;20115;-46
2023/10/30 07:29:05;;;;;;;16.48;3.00;;;;;;;8.85;100.00;99939.09;4997499;28;20026;-46
2023/10/30 07:31:30;;;;;;;16.83;2.90;;;;;;;8.86;100.00;99952.22;5014802;28;20037;-47
2023/10/30 07:33:57;;;;;;;16.08;2.92;;;;;;;8.86;100.00;99946.09;4997098;28;20374;-47
2023/10/30 07:36:22;;;;;;;10.02;2.35;;;;;;;8.88;100.00;99955.56;5005826;28;20028;-46
2023/10/30 07:38:48;;;;;;;18.15;3.35;;;;;;;8.93;100.00;99957.84;4999711;28;20030;-49
2023/10/30 07:41:13;;;;;;;16.83;3.15;;;;;;;8.97;100.00;99967.19;4997546;28;20042;-48
2023/10/30 07:43:39;;;;;;;19.40;2.92;;;;;;;9.00;100.00;99961.63;4996020;28;20049;-47
2023/10/30 07:46:04;;;;;;;12.85;2.85;;;;;;;9.06;100.00;99962.94;4998544;28;20068;-48
2023/10/30 07:48:30;;;;;;;15.82;3.08;;;;;;;9.10;100.00;99963.53;4997039;28;20026;-46
2023/10/30 07:50:55;;;;;;;13.75;3.00;;;;;;;9.13;100.00;99955.31;4994662;28;20374;-48
2023/10/30 07:53:20;;;;;;;13.70;3.53;;;;;;;9.18;100.00;99951.28;4999376;28;20087;-47
2023/10/30 07:55:46;;;;;;;10.75;3.00;;;;;;;9.23;100.00;99957.03;4997586;28;20473;-47
2023/10/30 07:58:12;;;;;;;13.88;2.72;;;;;;;9.27;100.00;99949.66;5002081;28;20598;-47
2023/10/30 08:00:38;;;;;;;12.73;2.67;;;;;;;9.31;100.00;99953.75;5008414;28;20026;-47
2023/10/30 08:03:05;;;;;;;10.32;3.00;;;;;;;9.37;100.00;99953.19;4999801;28;20144;-47
2023/10/30 08:05:32;;;;;;;15.73;3.10;;;;;;;9.40;100.00;99952.13;4995693;28;20113;-47
2023/10/30 08:07:57;;;;;;;13.95;3.10;;;;;;;9.44;100.00;99964.97;5003890;28;20042;-46
2023/10/30 08:10:22;;;;;;;16.00;3.17;;;;;;;9.49;100.00;99959.25;5001434;28;20033;-46
2023/10/30 08:12:48;;;;;;;14.85;2.85;;;;;;;9.55;100.00;99958.72;5000210;28;20042;-47
2023/10/30 08:15:13;;;;;;;13.65;2.78;;;;;;;9.63;100.00;99961.56;4993468;28;20121;-46
2023/10/30 08:17:38;;;;;;;13.23;2.95;;;;;;;9.70;100.00;99956.56;4996576;28;20061;-46
2023/10/30 08:20:04;;;;;;;13.70;3.03;;;;;;;9.76;100.00;99958.69;4998987;28;20052;-47
2023/10/30 08:22:32;;;;;;;9.35;2.65;;;;;;;9.85;100.00;99951.72;4995440;28;20072;-46
2023/10/30 08:24:57;;;;;;;12.18;2.80;;;;;;;9.91;100.00;99953.84;4993949;28;20027;-46
2023/10/30 08:27:22;;;;;;;12.25;2.55;;;;;;;9.99;100.00;99961.97;5001648;28;20018;-47
2023/10/30 08:29:47;;;;;;;11.13;2.63;;;;;;;10.06;100.00;99966.72;4995913;28;20466;-47
2023/10/30 08:32:13;;;;;;;15.55;3.20;;;;;;;10.11;100.00;99973.31;4995930;28;20035;-47
2023/10/30 08:34:38;;;;;;;13.23;2.70;;;;;;;10.18;100.00;99976.25;5002251;28;20034;-46
2023/10/30 08:37:04;;;;;;;15.95;3.05;;;;;;;10.22;100.00;99975.00;4996564;28;20421;-46
2023/10/30 08:39:29;;;;;;;15.82;2.90;;;;;;;10.29;100.00;99962.03;5023010;28;20034;-46
2023/10/30 08:41:54;;;;;;;14.43;2.53;;;;;;;10.34;100.00;99968.63;4997269;28;20050;-46
2023/10/30 08:44:20;;;;;;;13.57;2.90;;;;;;;10.40;100.00;99956.63;4998591;28;20038;-46
2023/10/30 08:46:45;;;;;;;15.55;2.78;;;;;;;10.49;100.00;99962.91;4998527;28;20081;-46
2023/10/30 08:49:10;;;;;;;8.15;2.35;;;;;;;10.53;100.00;99970.47;4998501;28;20061;-46
2023/10/30 08:51:40;;;;;;;14.23;2.80;;;;;;;10.60;100.00;99964.59;4996222;28;20033;-47
2023/10/30 08:54:06;;;;;;;9.88;2.55;;;;;;;10.65;100.00;99965.84;4996393;28;20485;-47
2023/10/30 08:56:31;;;;;;;8.80;2.50;;;;;;;10.73;100.00;99962.50;5002233;28;20026;-46
2023/10/30 08:58:56;;;;;;;12.35;2.60;;;;;;;10.78;100.00;99965.59;5005807;28;20030;-47
2023/10/30 09:01:22;;;;;;;10.98;2.78;;;;;;;10.87;100.00;99963.88;5000132;28;20061;-46
2023/10/30 09:03:47;;;;;;;11.85;2.65;;;;;;;10.92;100.00;99966.97;5007914;28;20094;-46
2023/10/30 09:06:12;;;;;;;12.20;2.55;;;;;;;10.96;100.00;99968.38;4996733;28;20037;-48
2023/10/30 09:08:38;;;;;;;11.90;3.05;;;;;;;11.02;100.00;99970.44;4997004;28;20045;-46
2023/10/30 09:11:03;;;;;;;13.70;2.58;;;;;;;11.06;100.00;99974.50;4993934;28;20022;-46
2023/10/30 09:13:28;;;;;;;12.07;2.92;;;;;;;11.11;100.00;99971.44;4996814;28;20058;-46
2023/10/30 09:15:54;;;;;;;8.80;2.53;;;;;;;11.17;100.00;99970.00;4996024;28;20491;-46
2023/10/30 09:18:19;;;;;;;9.85;2.42;;;;;;;11.22;100.00;99967.75;5002397;28;20026;-46
2023/10/30 09:20:45;;;;;;;10.10;2.75;;;;;;;11.26;100.00;99964.69;5009990;28;20024;-47
2023/10/30 09:23:10;;;;;;;10.77;2.55;;;;;;;11.31;100.00;99958.94;4995487;28;20118;-46
2023/10/30 09:25:35;;;;;;;9.23;2.60;;;;;;;11.34;100.00;99961.31;4995418;28;20018;-46
2023/10/30 09:28:01;;;;;;;9.32;2.60;;;;;;;11.38;100.00;99956.53;5002159;28;20026;-46
2023/10/30 09:30:30;;;;;;;11.85;2.30;;;;;;;11.40;100.00;99954.56;4993030;28;20029;-46
2023/10/30 09:32:58;;;;;;;10.90;2.25;;;;;;;11.43;100.00;99955.09;4999053;28;20031;-47
2023/10/30 09:35:23;;;;;;;10.43;2.67;;;;;;;11.48;100.00;99974.13;5017312;28;20028;-46
2023/10/30 09:37:48;;;;;;;12.23;2.42;;;;;;;11.51;100.00;99966.81;4972738;28;20030;-48
2023/10/30 09:40:14;;;;;;;12.35;3.38;;;;;;;11.52;100.00;99966.69;4995359;28;20023;-48
2023/10/30 09:42:51;;;;;;;8.90;2.13;;;;;;;11.55;100.00;99962.91;4997542;28;20022;-46
2023/10/30 09:45:18;;;;;;;10.20;2.40;;;;;;;11.56;100.00;99965.44;4998001;28;20323;-46
2023/10/30 09:47:43;;;;;;;10.70;2.35;;;;;;;11.58;100.00;99959.97;4998031;28;20030;-46
2023/10/30 09:50:10;;;;;;;13.60;2.22;;;;;;;11.59;100.00;99957.16;5001674;28;20029;-47
2023/10/30 09:52:36;;;;;;;9.38;2.13;;;;;;;11.63;100.00;99953.22;5000015;28;20121;-47
2023/10/30 09:55:06;;;;;;;9.30;2.60;;;;;;;11.63;100.00;99950.56;4996663;28;20029;-47
2023/10/30 09:57:32;;;;;;;10.45;2.40;;;;;;;11.66;100.00;99936.97;4999041;28;20046;-46
2023/10/30 09:59:58;;;;;;;14.43;2.88;;;;;;;11.67;100.00;99940.44;5000004;28;20412;-46
2023/10/30 10:02:23;;;;;;;16.98;3.08;;;;;;;11.70;100.00;99939.34;4993448;28;20042;-47
2023/10/30 10:04:49;;;;;;;9.23;2.17;;;;;;;11.73;100.00;99934.56;4996175;28;20057;-47
2023/10/30 10:07:15;;;;;;;6.97;2.42;;;;;;;11.75;100.00;99932.56;4994100;28;20113;-47
2023/10/30 10:09:57;;;;;;;8.02;2.35;;;;;;;11.79;100.00;99923.34;4995976;28;20117;-47
2023/10/30 10:12:22;;;;;;;11.82;2.33;;;;;;;11.83;100.00;99930.00;4997939;28;20040;-47
2023/10/30 10:14:47;;;;;;;7.22;2.08;;;;;;;11.87;100.00;99929.72;4996440;28;20022;-48
2023/10/30 10:17:13;;;;;;;6.43;1.92;;;;;;;11.91;100.00;99931.13;4996323;28;20023;-48
2023/10/30 10:19:45;;;;;;;12.57;2.78;;;;;;;11.91;100.00;99931.97;5000866;28;20493;-47
2023/10/30 10:22:10;;;;;;;5.22;1.75;;;;;;;11.98;100.00;99934.88;5000307;28;20023;-46
2023/10/30 10:24:37;;;;;;;10.88;2.22;;;;;;;12.00;100.00;99927.56;4991687;28;20104;-46
2023/10/30 10:27:04;;;;;;;7.30;2.00;;;;;;;12.02;100.00;99939.75;4994402;28;20030;-46
2023/10/30 10:29:33;;;;;;;8.80;2.17;;;;;;;12.06;100.00;99940.28;4991889;28;20033;-46
2023/10/30 10:31:59;;;;;;;12.57;2.92;;;;;;;12.09;100.00;99928.50;4990320;28;20034;-48
2023/10/30 10:34:28;;;;;;;10.40;2.10;;;;;;;12.13;100.00;99922.72;4994903;28;20457;-46
2023/10/30 10:36:58;;;;;;;;;;;;;;;12.20;100.00;99928.28;4997205;28;20057;-47
2023/10/30 10:39:23;;;;;;;6.90;2.10;;;;;;;12.20;100.00;99929.13;4991272;28;19943;-46
2023/10/30 10:41:50;;;;;;;10.15;2.40;;;;;;;12.23;100.00;99927.16;4994309;28;20108;-46
2023/10/30 10:44:17;;;;;;;5.90;1.92;;;;;;;12.24;100.00;99920.84;4993208;28;20041;-48
2023/10/30 10:46:43;;;;;;;8.15;1.98;;;;;;;12.27;100.00;99925.84;4990182;28;20091;-46
2023/10/30 10:49:08;;;;;;;6.00;1.80;;;;;;;12.30;100.00;99925.56;4987799;28;20117;-46
2023/10/30 10:51:35;;;;;;;9.68;2.60;;;;;;;12.32;100.00;99929.75;4995373;28;20511;-48
2023/10/30 10:54:09;;;;;;;15.43;5.10;;;;;;;12.34;100.00;99925.13;4997398;28;20030;-46
2023/10/30 10:56:37;;;;;;;8.80;2.17;;;;;;;12.37;100.00;99913.31;5010338;28;20026;-47
2023/10/30 10:59:11;;;;;;;8.73;2.28;;;;;;;12.41;100.00;99917.34;5000700;28;20026;-46
2023/10/30 11:01:40;;;;;;;8.60;2.70;;;;;;;12.44;100.00;99916.19;4993663;28;20027;-48
2023/10/30 11:04:08;;;;;;;9.38;2.45;;;;;;;12.48;100.00;99920.25;4998435;28;20026;-46
2023/10/30 11:06:37;;;;;;;8.88;2.35;;;;;;;12.49;100.00;99919.25;4997650;28;20054;-46
2023/10/30 11:09:07;;;;;;;;;;;;;;;12.57;100.00;99916.66;5001838;28;20495;-47
2023/10/30 11:11:40;;;;;;;8.70;2.20;;;;;;;12.55;100.00;99914.13;4995229;28;19913;-47
2023/10/30 11:14:22;;;;;;;7.88;2.03;;;;;;;12.57;100.00;99917.50;4991159;28;20022;-46
2023/10/30 11:16:59;;;;;;;7.95;2.10;;;;;;;12.59;100.00;99904.88;5001139;28;20560;-48
2023/10/30 11:19:27;;;;;;;4.85;1.67;;;;;;;12.62;100.00;99902.88;4995258;28;20034;-50